KFEP/FEP METAR and TAF weather

Enter ICAO airport designator
Station Type Date Time Source
KFEP METAR 2019/02/18 03:55 UTC NOAA

KFEP 180355Z AUTO 02013KT 4SM -SN SCT009 BKN023 OVC043 M07/M08 A2999 RMK AO2 T10681085


Station Type Date Time Source
KFEP Decoded METAR 2019/02/18 03:55 UTC NOAA

Freeport, Albertus Airport, IL, United States (KFEP) 42-14-47N 089-34-56W
Feb 17, 2019 - 10:55 PM EST / 2019.02.18 0355 UTC
Wind: from the NNE (020 degrees) at 15 MPH (13 KT):0
Visibility: 4 mile(s):0
Sky conditions: overcast
Weather: light snow
Temperature: 19.8 F (-6.8 C)
Windchill: 6 F (-14 C):1
Dew Point: 16.7 F (-8.5 C)
Relative Humidity: 87%
Pressure (altimeter): 29.99 in. Hg (1015 hPa)
ob: KFEP 180355Z AUTO 02013KT 4SM -SN SCT009 BKN023 OVC043 M07/M08 A2999 RMK AO2 T10681085
cycle: 4

Station Type Date Time Source
KFEP TAF UTC NOAA

Error!


Example: see airport list